Portada
METAR-TAF:

METAR-TAF

Aeropuertos :

Aeropuerto Internacional de Maiquetía Simón Bolívar

Caracas, Venezuela

latitud: 10-36N, longitud: 066-59W, altitud: 43 m

Observación

El informe se hizo hace 1 hora y 10 minutos, a las 23:00 UTC
Viento calma
Temperatura 22°C
Humedad 106%
Presión 1008 hPa
Visibilidad 10 km o más
Cielo nuboso a una altura de 1600 ft

METAR: SVMI 242300Z 00000KT 9999 BKN016 22/23 Q1008

Hora: 20:10 (00:10 UTC)

Pronóstico

El informe se hizo hace 2 horas y 10 minutos, a las 22:00 UTC
Pronóstico válido del 24 a las 00 UTC al 25 a las 00 UTC
Viento 2 kt del este
Visibilidad 10 km o más
Cielo nuboso a una altura de 1600 ft
Temporalmente
del 25 a las 00 UTC al 25 a las 04 UTC
Viento 5 kt del este
Visibilidad: 9000 m
Cielo nuboso a una altura de 1600 ft
llovizna

TAF: SVMI 242200Z 2400/2500 09002KT 9999 BKN016 TX31/1800Z TN24/0900Z TEMPO 2500/2504 09005KT 9000 DZ BKN016

Observaciones y pronósticos meteorológicos de más de 4000 aeropuertos (mensajes METAR y TAF).

Los puntos amarillos y rojos representan las estaciones disponibles.

Ponga el ratón en el punto deseado para ver el nombre de la estación.

Haga clic para ver las observaciones y los pronósticos meteorológicos.

Para cambiar el mapa : haga clic en los botones verdes con una cruz de color negro para hacer un zoom, en el botón verde con un guión para alejar o en las flechas verdes para mapas adyacentes.


METAR-TAF: